createdAt,value
2023-05-24T00:00:25.616Z,69.86
2023-05-24T00:02:53.344Z,71.13
2023-05-24T00:05:20.630Z,69.36
2023-05-24T00:07:48.118Z,69.87
2023-05-24T00:10:15.611Z,70.32
2023-05-24T00:12:43.026Z,70.84
2023-05-24T00:15:10.602Z,71.83
2023-05-24T00:17:41.569Z,71.31
2023-05-24T00:20:13.500Z,70.72
2023-05-24T00:22:41.833Z,69.74
2023-05-24T00:25:10.595Z,71.78
2023-05-24T00:27:37.922Z,71.89
2023-05-24T00:30:06.366Z,71.71
2023-05-24T00:32:36.519Z,72.00
2023-05-24T00:35:04.414Z,72.04
2023-05-24T00:37:32.580Z,73.37
2023-05-24T00:40:00.577Z,75.17
2023-05-24T00:42:28.592Z,73.24
2023-05-24T00:44:55.877Z,73.24
2023-05-24T00:47:23.396Z,74.08
2023-05-24T00:49:51.141Z,74.92
2023-05-24T00:52:18.478Z,75.18
2023-05-24T00:54:46.342Z,74.77
2023-05-24T00:57:14.186Z,75.13
2023-05-24T00:59:41.996Z,76.16
2023-05-24T01:02:09.393Z,75.74
2023-05-24T01:04:37.915Z,76.56
2023-05-24T01:07:39.342Z,76.50
2023-05-24T01:10:21.935Z,76.98
2023-05-24T01:13:17.053Z,79.46
2023-05-24T01:16:31.831Z,78.36
2023-05-24T01:19:26.070Z,78.12
2023-05-24T01:22:09.271Z,77.88
2023-05-24T01:25:10.809Z,78.81
2023-05-24T01:27:38.837Z,79.13
2023-05-24T01:30:07.545Z,79.44
2023-05-24T01:32:34.967Z,80.14
2023-05-24T01:35:02.316Z,79.21
2023-05-24T01:37:29.580Z,79.11
2023-05-24T01:39:56.962Z,79.67
2023-05-24T01:42:54.944Z,79.89
2023-05-24T01:45:37.550Z,80.03
2023-05-24T01:48:19.159Z,80.12
2023-05-24T01:50:52.479Z,80.61
2023-05-24T01:53:20.447Z,80.82
2023-05-24T01:55:49.846Z,81.47
2023-05-24T01:58:21.043Z,82.36
2023-05-24T02:00:49.070Z,82.84
2023-05-24T02:03:17.018Z,81.42
2023-05-24T02:05:46.142Z,81.91
2023-05-24T02:08:13.534Z,83.00
2023-05-24T02:10:41.414Z,83.95
2023-05-24T02:13:09.254Z,82.77
2023-05-24T02:15:36.888Z,82.40
2023-05-24T02:18:07.996Z,82.91
2023-05-24T02:20:37.162Z,84.66
2023-05-24T02:23:04.801Z,84.99
2023-05-24T02:25:33.338Z,84.65
2023-05-24T02:28:00.780Z,83.75
2023-05-24T02:30:28.272Z,85.07
2023-05-24T02:32:56.230Z,87.77
2023-05-24T02:35:24.260Z,86.12
2023-05-24T02:37:51.662Z,85.90
2023-05-24T02:40:19.038Z,84.75
2023-05-24T02:42:47.770Z,84.30
2023-05-24T02:45:15.080Z,84.13
2023-05-24T02:47:42.360Z,86.98
2023-05-24T02:50:10.492Z,86.36
2023-05-24T02:52:37.905Z,87.24
2023-05-24T02:55:06.738Z,88.22
2023-05-24T02:57:35.151Z,88.36
2023-05-24T03:00:02.725Z,87.75
2023-05-24T03:02:34.221Z,88.98
2023-05-24T03:05:01.886Z,87.97
2023-05-24T03:07:30.456Z,88.28
2023-05-24T03:09:57.725Z,88.76
2023-05-24T03:12:25.031Z,89.79
2023-05-24T03:14:52.333Z,89.94
2023-05-24T03:17:22.614Z,89.07
2023-05-24T03:19:51.058Z,89.72
2023-05-24T03:22:37.486Z,89.40
2023-05-24T03:25:05.755Z,88.81
2023-05-24T03:27:33.125Z,89.06
2023-05-24T03:30:00.690Z,90.33
2023-05-24T03:32:30.905Z,90.47
2023-05-24T03:34:59.521Z,89.24
2023-05-24T03:37:27.898Z,91.48
2023-05-24T03:39:58.077Z,89.69
2023-05-24T03:42:34.597Z,90.13
2023-05-24T03:45:01.975Z,90.27
2023-05-24T03:47:29.456Z,89.84
2023-05-24T03:49:57.051Z,89.54
2023-05-24T03:52:24.750Z,89.82
2023-05-24T03:54:52.175Z,89.64
2023-05-24T03:57:19.465Z,90.16
2023-05-24T03:59:47.248Z,89.46
2023-05-24T04:02:14.731Z,88.66
2023-05-24T04:04:42.157Z,89.96
2023-05-24T04:07:12.009Z,90.49
2023-05-24T04:09:40.365Z,90.46
2023-05-24T04:12:07.731Z,90.37
2023-05-24T04:14:35.323Z,89.68
2023-05-24T04:17:04.560Z,89.07
2023-05-24T04:19:32.299Z,90.55
2023-05-24T04:22:00.416Z,90.36
2023-05-24T04:24:27.833Z,91.65
2023-05-24T04:26:55.194Z,92.06
2023-05-24T04:29:26.112Z,93.05
2023-05-24T04:31:55.252Z,91.48
2023-05-24T04:34:25.415Z,90.99
2023-05-24T04:36:53.190Z,90.33
2023-05-24T04:39:20.584Z,90.62
2023-05-24T04:41:51.046Z,90.01
2023-05-24T04:44:18.496Z,90.19
2023-05-24T04:46:45.857Z,89.56
2023-05-24T04:49:13.140Z,89.12
2023-05-24T04:51:40.499Z,90.54
2023-05-24T04:54:10.983Z,88.39
2023-05-24T04:56:38.772Z,88.17
2023-05-24T04:59:07.184Z,86.68
2023-05-24T05:01:34.736Z,88.96
2023-05-24T05:04:04.703Z,88.09
2023-05-24T05:06:35.005Z,86.91
2023-05-24T05:09:02.423Z,84.55
2023-05-24T05:11:29.729Z,83.99
2023-05-24T05:13:57.063Z,83.86
2023-05-24T05:16:24.444Z,82.71
2023-05-24T05:18:54.584Z,82.77
2023-05-24T05:21:21.946Z,82.83
2023-05-24T05:23:49.364Z,81.12
2023-05-24T05:26:16.652Z,79.37
2023-05-24T05:28:44.001Z,79.71
2023-05-24T05:31:11.324Z,78.99
2023-05-24T05:33:38.632Z,78.77
2023-05-24T05:36:07.774Z,80.71
2023-05-24T05:38:35.071Z,79.88
2023-05-24T05:41:02.401Z,76.58
2023-05-24T05:43:29.794Z,78.69
2023-05-24T05:45:57.492Z,79.83
2023-05-24T05:48:25.812Z,79.22
2023-05-24T05:50:53.163Z,75.87
2023-05-24T05:53:20.519Z,77.18
2023-05-24T05:55:47.812Z,77.62
2023-05-24T05:58:16.541Z,78.30
2023-05-24T06:00:44.091Z,79.31
2023-05-24T06:03:11.663Z,77.84
2023-05-24T06:05:39.040Z,77.04
2023-05-24T06:08:06.324Z,74.99
2023-05-24T06:10:33.654Z,73.09
2023-05-24T06:13:03.134Z,72.95
2023-05-24T06:15:30.824Z,75.02
2023-05-24T06:17:58.115Z,72.93
2023-05-24T06:20:25.783Z,73.74
2023-05-24T06:22:55.423Z,71.38
2023-05-24T06:25:24.460Z,74.90
2023-05-24T06:27:51.862Z,71.38
2023-05-24T06:30:19.319Z,71.89
2023-05-24T06:32:46.776Z,70.74
2023-05-24T06:35:14.229Z,71.18
2023-05-24T06:37:41.618Z,70.96
2023-05-24T06:40:09.905Z,69.38
2023-05-24T06:42:37.964Z,68.19
2023-05-24T06:45:09.300Z,68.50
2023-05-24T06:47:37.272Z,68.23
2023-05-24T06:50:05.914Z,68.54
2023-05-24T06:52:33.327Z,67.23
2023-05-24T06:55:00.678Z,67.27
2023-05-24T06:57:27.996Z,65.17
2023-05-24T06:59:55.273Z,68.49
2023-05-24T07:02:26.703Z,63.64
2023-05-24T07:04:54.576Z,63.71
2023-05-24T07:07:21.961Z,61.71
2023-05-24T07:09:49.227Z,61.25
2023-05-24T07:12:16.657Z,62.12
2023-05-24T07:14:44.090Z,61.82
2023-05-24T07:17:11.627Z,61.89
2023-05-24T07:19:39.096Z,61.15
2023-05-24T07:22:07.429Z,61.63
2023-05-24T07:24:34.826Z,61.71
2023-05-24T07:27:02.392Z,62.68
2023-05-24T07:29:29.687Z,61.87
2023-05-24T07:31:58.244Z,62.10
2023-05-24T07:34:27.750Z,62.20
2023-05-24T07:36:55.110Z,61.93
2023-05-24T07:39:23.291Z,63.83
2023-05-24T07:41:51.268Z,63.04
2023-05-24T07:44:19.342Z,60.82
2023-05-24T07:46:46.680Z,61.64
2023-05-24T07:49:13.985Z,58.10
2023-05-24T07:51:42.212Z,55.01
2023-05-24T07:54:12.260Z,55.11
2023-05-24T07:56:41.675Z,56.72
2023-05-24T07:59:08.916Z,56.27
2023-05-24T08:01:36.816Z,56.35
2023-05-24T08:04:04.473Z,55.70
2023-05-24T08:06:35.162Z,57.21
2023-05-24T08:09:04.409Z,54.40
2023-05-24T08:11:31.700Z,57.45
2023-05-24T08:13:59.012Z,55.96
2023-05-24T08:16:26.795Z,56.96
2023-05-24T08:18:55.381Z,55.43
2023-05-24T08:21:23.506Z,55.92
2023-05-24T08:23:51.221Z,56.11
2023-05-24T08:26:20.858Z,57.78
2023-05-24T08:28:48.234Z,56.17
2023-05-24T08:31:16.372Z,53.68
2023-05-24T08:33:44.530Z,53.13
2023-05-24T08:36:12.148Z,54.90
2023-05-24T08:38:41.219Z,53.85
2023-05-24T08:41:11.568Z,52.12
2023-05-24T08:43:39.203Z,52.03
2023-05-24T08:46:08.730Z,52.80
2023-05-24T08:48:50.056Z,54.16
2023-05-24T08:51:18.260Z,52.49
2023-05-24T08:53:50.764Z,52.57
2023-05-24T08:56:19.082Z,51.12
2023-05-24T08:58:47.289Z,52.28
2023-05-24T09:01:17.299Z,54.19
2023-05-24T09:03:46.884Z,51.18
2023-05-24T09:06:17.536Z,51.16
2023-05-24T09:08:46.309Z,51.22
2023-05-24T09:11:16.318Z,52.12
2023-05-24T09:13:45.704Z,51.33
2023-05-24T09:16:13.324Z,51.72
2023-05-24T09:18:44.563Z,50.98
2023-05-24T09:21:12.456Z,51.00
2023-05-24T09:23:41.500Z,49.91
2023-05-24T09:26:12.964Z,51.74
2023-05-24T09:28:42.113Z,51.72
2023-05-24T09:31:09.500Z,51.38
2023-05-24T09:33:38.836Z,51.23
2023-05-24T09:36:07.068Z,51.90
2023-05-24T09:38:36.427Z,50.86
2023-05-24T09:41:06.543Z,51.05
2023-05-24T09:43:36.413Z,51.39
2023-05-24T09:46:05.120Z,50.22
2023-05-24T09:48:35.914Z,50.05
2023-05-24T09:51:05.842Z,50.75
2023-05-24T09:53:37.920Z,50.80
2023-05-24T09:56:07.041Z,50.64
2023-05-24T09:58:36.271Z,50.20
2023-05-24T10:01:10.815Z,50.55
2023-05-24T10:03:38.629Z,51.21
2023-05-24T10:06:11.400Z,51.47
2023-05-24T10:08:39.185Z,51.26
2023-05-24T10:11:06.560Z,51.55
2023-05-24T10:13:37.136Z,51.13
2023-05-24T10:16:05.946Z,50.45
2023-05-24T10:18:33.371Z,52.12
2023-05-24T10:21:02.913Z,49.84
2023-05-24T10:23:32.653Z,50.37
2023-05-24T10:26:06.617Z,49.70
2023-05-24T10:28:38.669Z,49.22
2023-05-24T10:31:22.915Z,48.60
2023-05-24T10:33:52.003Z,47.84
2023-05-24T10:36:19.693Z,48.58
2023-05-24T10:38:47.285Z,49.36
2023-05-24T10:41:17.261Z,48.73
2023-05-24T10:44:08.408Z,47.65
2023-05-24T10:46:38.425Z,47.86
2023-05-24T10:49:07.618Z,48.16
2023-05-24T10:51:40.403Z,47.58
2023-05-24T10:54:27.497Z,47.78
2023-05-24T10:56:56.906Z,47.77
2023-05-24T10:59:29.414Z,46.32
2023-05-24T11:01:58.528Z,46.63
2023-05-24T11:04:26.580Z,47.64
2023-05-24T11:07:01.596Z,46.51
2023-05-24T11:09:29.893Z,44.75
2023-05-24T11:12:04.052Z,42.32
2023-05-24T11:14:32.362Z,45.25
2023-05-24T11:17:02.887Z,45.55
2023-05-24T11:19:36.213Z,46.72
2023-05-24T11:22:07.130Z,47.04
2023-05-24T11:24:36.007Z,46.40
2023-05-24T11:27:03.842Z,46.41
2023-05-24T11:29:31.188Z,46.44
2023-05-24T11:32:06.202Z,46.01
2023-05-24T11:34:40.098Z,45.38
2023-05-24T11:37:07.734Z,45.52
2023-05-24T11:39:38.186Z,45.23
2023-05-24T11:42:06.603Z,45.07
2023-05-24T11:44:38.154Z,45.55
2023-05-24T11:47:07.945Z,45.78
2023-05-24T11:49:36.049Z,46.50
2023-05-24T11:52:03.930Z,45.10
2023-05-24T11:54:33.487Z,43.68
2023-05-24T11:57:01.812Z,46.57
2023-05-24T11:59:30.224Z,47.06
2023-05-24T12:02:00.439Z,46.50
2023-05-24T12:04:29.258Z,46.21
2023-05-24T12:06:57.175Z,46.30
2023-05-24T12:09:25.409Z,46.01
2023-05-24T12:11:57.630Z,46.13
2023-05-24T12:14:28.553Z,44.92
2023-05-24T12:16:57.176Z,45.67
2023-05-24T12:19:35.149Z,45.07
2023-05-24T12:22:10.671Z,46.35
2023-05-24T12:24:38.447Z,46.20
2023-05-24T12:27:10.095Z,46.19
2023-05-24T12:29:40.990Z,45.24
2023-05-24T12:32:13.546Z,45.45
2023-05-24T12:34:43.082Z,44.88
2023-05-24T12:37:15.052Z,43.44
2023-05-24T12:39:44.252Z,44.23
2023-05-24T12:42:15.350Z,44.50
2023-05-24T12:44:42.812Z,45.13
2023-05-24T12:47:10.648Z,45.17
2023-05-24T12:49:38.220Z,46.21
2023-05-24T12:52:06.860Z,45.58
2023-05-24T12:54:36.556Z,45.06
2023-05-24T12:57:04.260Z,45.94
2023-05-24T12:59:31.746Z,46.76
2023-05-24T13:01:59.220Z,46.28
2023-05-24T13:04:30.527Z,45.31
2023-05-24T13:06:58.051Z,45.41
2023-05-24T13:09:26.304Z,45.13
2023-05-24T13:11:55.651Z,46.57
2023-05-24T13:14:23.112Z,46.19
2023-05-24T13:16:52.037Z,47.04
2023-05-24T13:19:22.447Z,46.67
2023-05-24T13:21:49.911Z,47.17
2023-05-24T13:24:17.549Z,45.67
2023-05-24T13:26:45.399Z,46.21
2023-05-24T13:31:44.073Z,45.09
2023-05-24T13:34:11.817Z,45.66
2023-05-24T13:36:39.489Z,46.50
2023-05-24T13:41:43.646Z,44.87
2023-05-24T13:44:12.276Z,44.87
2023-05-24T13:46:40.305Z,45.20
2023-05-24T13:49:13.722Z,45.00
2023-05-24T13:51:41.199Z,45.22
2023-05-24T13:54:08.974Z,44.77
2023-05-24T13:56:36.605Z,43.35
2023-05-24T13:59:05.218Z,43.86
2023-05-24T14:01:36.693Z,44.19
2023-05-24T14:04:05.449Z,44.73
2023-05-24T14:06:34.329Z,43.96
2023-05-24T14:09:01.859Z,45.04
2023-05-24T14:11:31.714Z,45.17
2023-05-24T14:16:30.171Z,45.81
2023-05-24T14:18:58.073Z,44.66
2023-05-24T14:23:54.237Z,44.68
2023-05-24T14:26:24.420Z,43.88
2023-05-24T14:28:54.464Z,44.51
2023-05-24T14:31:24.165Z,45.66
2023-05-24T14:33:51.680Z,46.33
2023-05-24T14:36:19.350Z,46.43
2023-05-24T14:38:46.837Z,45.74
2023-05-24T14:41:15.439Z,45.63
2023-05-24T14:43:43.050Z,45.79
2023-05-24T14:46:10.684Z,46.23
2023-05-24T14:48:41.403Z,46.39
2023-05-24T14:51:09.211Z,46.43
2023-05-24T14:53:36.635Z,46.30
2023-05-24T14:56:05.117Z,45.96
2023-05-24T14:58:32.483Z,46.04
2023-05-24T15:00:59.856Z,46.58
2023-05-24T15:03:27.474Z,45.87
2023-05-24T15:05:54.936Z,45.40
2023-05-24T15:08:22.291Z,44.15
2023-05-24T15:10:49.704Z,45.20
2023-05-24T15:13:18.675Z,44.11
2023-05-24T15:15:46.281Z,44.15
2023-05-24T15:18:13.804Z,44.32
2023-05-24T15:20:41.869Z,44.14
2023-05-24T15:23:10.786Z,44.00
2023-05-24T15:25:38.403Z,44.00
2023-05-24T15:28:08.935Z,44.43
2023-05-24T15:30:36.304Z,44.95
2023-05-24T15:33:04.113Z,45.31
2023-05-24T15:35:31.807Z,45.13
2023-05-24T15:37:59.338Z,45.78
2023-05-24T15:40:26.911Z,44.72
2023-05-24T15:42:54.406Z,45.16
2023-05-24T15:45:21.992Z,45.29
2023-05-24T15:47:49.484Z,45.48
2023-05-24T15:50:16.894Z,46.32
2023-05-24T15:52:44.274Z,47.08
2023-05-24T15:55:12.056Z,46.92
2023-05-24T15:57:39.460Z,47.08
2023-05-24T16:00:07.584Z,47.05
2023-05-24T16:02:39.747Z,47.07
2023-05-24T16:05:08.960Z,47.44
2023-05-24T16:07:36.407Z,47.63
2023-05-24T16:10:04.069Z,47.57
2023-05-24T16:12:33.046Z,48.21
2023-05-24T16:15:02.976Z,49.07
2023-05-24T16:17:32.344Z,48.35
2023-05-24T16:20:02.667Z,48.17
2023-05-24T16:22:30.315Z,48.35
2023-05-24T16:24:57.751Z,48.42
2023-05-24T16:27:25.109Z,48.86
2023-05-24T16:29:55.583Z,49.50
2023-05-24T16:32:23.593Z,49.71
2023-05-24T16:34:56.801Z,50.27
2023-05-24T16:37:26.226Z,50.63
2023-05-24T16:39:54.133Z,51.91
2023-05-24T16:42:22.913Z,52.64
2023-05-24T16:44:50.439Z,53.19
2023-05-24T16:47:17.874Z,53.15
2023-05-24T16:49:48.301Z,53.01
2023-05-24T16:52:17.769Z,54.08
2023-05-24T16:54:45.208Z,54.66
2023-05-24T16:57:12.620Z,55.23
2023-05-24T16:59:42.768Z,55.02
2023-05-24T17:02:10.191Z,56.09
2023-05-24T17:04:37.542Z,57.59
2023-05-24T17:07:06.698Z,58.82
2023-05-24T17:09:35.529Z,60.23
2023-05-24T17:12:03.788Z,61.04
2023-05-24T17:14:31.544Z,61.23
2023-05-24T17:16:58.994Z,62.84
2023-05-24T17:19:26.327Z,62.39
2023-05-24T17:21:53.860Z,63.04
2023-05-24T17:24:27.639Z,64.48
2023-05-24T17:26:56.476Z,63.99
2023-05-24T17:29:26.429Z,64.21
2023-05-24T17:31:53.871Z,64.69
2023-05-24T17:34:21.491Z,66.24
2023-05-24T17:36:50.300Z,66.62
2023-05-24T17:39:21.360Z,66.85
2023-05-24T17:41:48.707Z,66.15
2023-05-24T17:44:16.834Z,67.51
2023-05-24T17:46:44.536Z,67.16
2023-05-24T17:49:14.087Z,67.08
2023-05-24T17:51:41.487Z,66.44
2023-05-24T17:54:08.954Z,66.45
2023-05-24T17:56:36.357Z,66.27
2023-05-24T17:59:03.772Z,67.69
2023-05-24T18:01:31.678Z,67.47
2023-05-24T18:04:00.735Z,67.76
2023-05-24T18:06:28.607Z,67.32
2023-05-24T18:08:58.011Z,65.37
2023-05-24T18:11:26.289Z,65.30
2023-05-24T18:13:55.011Z,65.35
2023-05-24T18:16:22.740Z,65.54
2023-05-24T18:18:52.700Z,65.80
2023-05-24T18:21:20.131Z,66.37
2023-05-24T18:23:47.862Z,67.57
2023-05-24T18:26:15.269Z,68.83
2023-05-24T18:28:42.704Z,69.50
2023-05-24T18:31:11.204Z,69.68
2023-05-24T18:33:42.332Z,69.33
2023-05-24T18:36:10.381Z,68.82
2023-05-24T18:38:42.668Z,69.75
2023-05-24T18:41:12.017Z,69.62
2023-05-24T18:43:43.952Z,68.94
2023-05-24T18:46:15.397Z,68.96
2023-05-24T18:48:44.284Z,68.42
2023-05-24T18:51:12.617Z,67.40
2023-05-24T18:53:40.533Z,67.53
2023-05-24T18:56:09.776Z,66.10
2023-05-24T18:58:38.055Z,66.48
2023-05-24T19:01:05.719Z,66.35
2023-05-24T19:03:34.424Z,66.40
2023-05-24T19:06:06.660Z,66.17
2023-05-24T19:08:35.304Z,65.62
2023-05-24T19:11:02.721Z,66.16
2023-05-24T19:13:33.808Z,66.92
2023-05-24T19:16:02.934Z,66.70
2023-05-24T19:18:33.229Z,67.90
2023-05-24T19:21:01.718Z,68.23
2023-05-24T19:23:31.872Z,68.38
2023-05-24T19:25:59.266Z,68.85
2023-05-24T19:28:28.072Z,68.94
2023-05-24T19:30:55.702Z,69.24
2023-05-24T19:33:24.231Z,69.66
2023-05-24T19:35:53.139Z,69.50
2023-05-24T19:38:23.342Z,69.23
2023-05-24T19:40:50.794Z,70.21
2023-05-24T19:43:18.240Z,70.04
2023-05-24T19:45:48.150Z,70.36
2023-05-24T19:48:17.060Z,70.24
2023-05-24T19:50:48.981Z,70.11
2023-05-24T19:53:19.606Z,71.19
2023-05-24T19:55:51.901Z,71.14
2023-05-24T19:58:20.751Z,71.46
2023-05-24T20:00:48.948Z,71.69
2023-05-24T20:03:16.405Z,71.75
2023-05-24T20:05:45.796Z,72.76
2023-05-24T20:08:13.386Z,72.88
2023-05-24T20:10:41.559Z,73.28
2023-05-24T20:13:08.970Z,73.24
2023-05-24T20:15:38.246Z,73.78
2023-05-24T20:18:08.813Z,74.13
2023-05-24T20:20:39.299Z,74.87
2023-05-24T20:23:06.766Z,74.23
2023-05-24T20:25:35.495Z,74.68
2023-05-24T20:28:12.723Z,74.60
2023-05-24T20:30:45.756Z,74.46
2023-05-24T20:33:15.052Z,74.28
2023-05-24T20:35:44.596Z,74.70
2023-05-24T20:38:13.782Z,74.78
2023-05-24T20:40:41.772Z,75.09
2023-05-24T20:43:09.472Z,75.32
2023-05-24T20:45:38.672Z,75.04
2023-05-24T20:48:07.223Z,74.54
2023-05-24T20:50:35.368Z,73.98
2023-05-24T20:53:02.786Z,73.66
2023-05-24T20:55:31.180Z,71.99
2023-05-24T20:57:58.536Z,71.27
2023-05-24T21:00:27.480Z,70.11
2023-05-24T21:02:55.481Z,67.96
2023-05-24T21:05:23.120Z,67.59
2023-05-24T21:07:50.683Z,66.61
2023-05-24T21:10:19.992Z,66.84
2023-05-24T21:15:16.649Z,67.99
2023-05-24T21:17:47.005Z,67.66
2023-05-24T21:20:14.534Z,68.29
2023-05-24T21:22:47.908Z,68.32
2023-05-24T21:25:16.486Z,69.36
2023-05-24T21:27:44.417Z,70.54
2023-05-24T21:30:12.409Z,70.89
2023-05-24T21:32:39.975Z,71.50
2023-05-24T21:35:07.927Z,73.07
2023-05-24T21:37:35.332Z,73.08
2023-05-24T21:40:03.044Z,73.80
2023-05-24T21:42:31.321Z,75.65
2023-05-24T21:45:01.372Z,75.53
2023-05-24T21:47:29.056Z,75.73
2023-05-24T21:49:56.970Z,76.26
2023-05-24T21:52:25.880Z,75.62
2023-05-24T21:54:53.349Z,76.15
2023-05-24T21:57:20.759Z,77.20
2023-05-24T21:59:48.100Z,76.75
2023-05-24T22:02:15.720Z,76.44
2023-05-24T22:04:43.139Z,76.45
2023-05-24T22:07:10.985Z,76.21
2023-05-24T22:09:38.308Z,77.15
2023-05-24T22:12:08.560Z,76.34
2023-05-24T22:14:36.018Z,78.12
2023-05-24T22:17:03.498Z,79.55
2023-05-24T22:19:40.020Z,81.08
2023-05-24T22:22:08.772Z,79.91
2023-05-24T22:24:36.229Z,80.38
2023-05-24T22:27:03.873Z,79.48
2023-05-24T22:29:33.828Z,77.56
2023-05-24T22:32:02.388Z,76.06
2023-05-24T22:34:29.925Z,75.89
2023-05-24T22:36:57.863Z,75.84
2023-05-24T22:39:25.857Z,76.00
2023-05-24T22:41:53.573Z,75.82
2023-05-24T22:44:21.154Z,75.99
2023-05-24T22:46:53.776Z,75.26
2023-05-24T22:49:22.008Z,74.92
2023-05-24T22:51:50.564Z,75.56
2023-05-24T22:54:17.986Z,75.17
2023-05-24T22:56:46.347Z,75.41
2023-05-24T22:59:13.794Z,74.01
2023-05-24T23:01:41.169Z,72.50
2023-05-24T23:04:20.742Z,72.10
2023-05-24T23:06:53.263Z,71.00
2023-05-24T23:09:36.691Z,70.70
2023-05-24T23:12:08.131Z,70.56
2023-05-24T23:14:39.894Z,70.08
2023-05-24T23:17:15.555Z,69.79
2023-05-24T23:19:43.598Z,69.68
2023-05-24T23:22:12.077Z,70.03
2023-05-24T23:24:42.069Z,70.46
2023-05-24T23:27:10.452Z,70.80
2023-05-24T23:29:40.437Z,70.88
2023-05-24T23:32:09.245Z,71.86
2023-05-24T23:34:37.252Z,72.29
2023-05-24T23:37:05.515Z,72.79
2023-05-24T23:39:32.992Z,73.14
2023-05-24T23:42:00.305Z,73.40
2023-05-24T23:44:27.719Z,73.36
2023-05-24T23:46:56.439Z,73.11
2023-05-24T23:49:25.737Z,73.57
2023-05-24T23:51:53.129Z,73.77
2023-05-24T23:54:20.690Z,74.23
2023-05-24T23:56:50.371Z,74.09
2023-05-24T23:59:17.672Z,74.08
